Lytle Creek, California
Current Conditions -  °F | °C
As of 4:53 AM on Thursday 27 Nov 2014 (Local Time) from KONT Reporting Station
Clear Clear  
Wind Chill: 53°   Ceiling: Unl
Heat Index: 53°   Visibility: 10mi
Dew Point: 29°   Wind: 5mph
Humidity: 40%   Direction: 20°NNE
Pressure: 30.12"   Gusts: NA
Location:  34.26°N, 117.5°W
Report Text: KONT 271253Z 02004KT 10SM CLR 12/M02 A3012 RMK AO2 SLP190 T01171017
Loading
Personal Weather Stations






























Interactive Weather Map New forecast layout! Learn more

10-Day Weather Forecast

Advertisements
Track Severe Weather on mobile